Time;durP1;ratioP1;P1;durP2;ratioP2;P2;SDS_P1;SDS_P2;PMS_P1;PMS_P2;Temp;Humidity;BMP_temperature;BMP_pressure;BME280_temperature;BME280_humidity;BME280_pressure;Samples;Min_cycle;Max_cycle;Signal;HPM_P1;HPM_P2
2022/07/04 00:00:15;;;;;;;4.85;2.00;;;15.70;73.00;;;;;;5003180;28;20509;-71
2022/07/04 00:02:41;;;;;;;7.00;2.55;;;15.70;73.30;;;;;;5000390;28;20046;-71
2022/07/04 00:05:10;;;;;;;7.32;2.47;;;15.60;73.20;;;;;;5013090;28;20211;-71
2022/07/04 00:07:39;;;;;;;7.95;2.60;;;15.60;73.30;;;;;;5009235;28;20441;-71
2022/07/04 00:10:06;;;;;;;12.07;3.33;;;15.60;73.40;;;;;;5012660;28;20088;-72
2022/07/04 00:12:32;;;;;;;10.85;3.00;;;15.60;73.70;;;;;;4993540;28;20031;-72
2022/07/04 00:14:57;;;;;;;6.85;2.40;;;15.60;73.80;;;;;;5011780;28;20049;-72
2022/07/04 00:17:23;;;;;;;8.20;3.13;;;15.60;73.90;;;;;;5001237;28;20037;-72
2022/07/04 00:19:49;;;;;;;10.15;3.58;;;15.60;73.90;;;;;;5007867;28;20109;-72
2022/07/04 00:22:14;;;;;;;8.38;3.45;;;15.60;73.90;;;;;;5012701;28;20030;-72
2022/07/04 00:24:40;;;;;;;7.80;3.75;;;15.60;73.90;;;;;;5012641;28;20060;-72
2022/07/04 00:27:06;;;;;;;7.72;3.67;;;15.50;73.80;;;;;;4997554;28;20046;-72
2022/07/04 00:29:33;;;;;;;8.73;3.58;;;15.50;74.00;;;;;;5013245;28;20022;-72
2022/07/04 00:31:59;;;;;;;9.73;3.85;;;15.50;74.00;;;;;;5004616;28;20034;-72
2022/07/04 00:34:25;;;;;;;8.30;3.22;;;15.50;74.00;;;;;;5000540;28;20042;-72
2022/07/04 00:36:51;;;;;;;8.52;3.45;;;15.40;74.00;;;;;;5007971;28;20033;-72
2022/07/04 00:39:17;;;;;;;8.80;3.42;;;15.40;73.90;;;;;;5000368;28;20088;-72
2022/07/04 00:41:42;;;;;;;10.30;3.75;;;15.40;74.10;;;;;;4999000;28;20037;-72
2022/07/04 00:44:10;;;;;;;9.02;3.47;;;15.30;74.20;;;;;;5008326;28;20057;-72
2022/07/04 00:46:36;;;;;;;9.65;3.60;;;15.30;74.30;;;;;;5007864;28;20051;-71
2022/07/04 00:49:06;;;;;;;8.35;3.25;;;15.30;74.30;;;;;;5008602;28;20060;-72
2022/07/04 00:51:32;;;;;;;8.40;3.63;;;15.30;74.30;;;;;;5002512;28;20113;-72
2022/07/04 00:53:59;;;;;;;6.95;3.28;;;15.30;74.30;;;;;;5006932;28;20242;-72
2022/07/04 00:56:25;;;;;;;7.72;3.47;;;15.30;74.10;;;;;;5010017;28;20037;-72
2022/07/04 00:58:52;;;;;;;8.55;3.40;;;15.30;74.30;;;;;;5004741;28;20039;-72
2022/07/04 01:01:19;;;;;;;9.82;4.00;;;15.20;74.40;;;;;;4999103;28;20505;-72
2022/07/04 01:03:45;;;;;;;9.32;3.45;;;15.30;74.50;;;;;;5001087;28;20081;-72
2022/07/04 01:06:13;;;;;;;9.52;3.40;;;15.30;74.50;;;;;;5008359;28;20042;-72
2022/07/04 01:08:41;;;;;;;9.80;3.75;;;15.20;74.40;;;;;;5006502;28;20474;-72
2022/07/04 01:11:08;;;;;;;8.95;3.25;;;15.10;74.60;;;;;;4999128;28;20074;-72
2022/07/04 01:13:33;;;;;;;10.18;3.40;;;15.20;74.70;;;;;;5011197;28;20030;-72
2022/07/04 01:15:59;;;;;;;9.85;3.20;;;15.10;74.50;;;;;;4996861;28;20050;-72
2022/07/04 01:18:25;;;;;;;8.10;3.22;;;15.10;74.70;;;;;;5001124;28;20042;-73
2022/07/04 01:20:50;;;;;;;9.00;3.75;;;15.10;74.90;;;;;;5006611;28;20034;-72
2022/07/04 01:23:16;;;;;;;10.07;3.38;;;15.10;74.80;;;;;;4992221;28;20093;-72
2022/07/04 01:25:42;;;;;;;9.85;3.60;;;15.10;75.00;;;;;;4996684;28;20118;-71
2022/07/04 01:28:08;;;;;;;7.47;3.47;;;15.10;75.20;;;;;;4996554;28;20034;-72
2022/07/04 01:30:36;;;;;;;9.95;2.92;;;15.10;75.40;;;;;;5000651;28;20038;-72
2022/07/04 01:33:02;;;;;;;8.85;3.63;;;15.10;75.50;;;;;;5009490;28;20034;-72
2022/07/04 01:35:28;;;;;;;7.55;3.15;;;15.10;75.40;;;;;;5010993;28;20030;-72
2022/07/04 01:37:53;;;;;;;10.07;3.80;;;15.10;75.50;;;;;;5009339;28;20034;-72
2022/07/04 01:40:19;;;;;;;8.65;3.17;;;15.00;75.50;;;;;;5010037;28;20034;-72
2022/07/04 01:42:45;;;;;;;10.30;3.40;;;15.00;75.60;;;;;;5001092;28;20034;-71
2022/07/04 01:45:12;;;;;;;7.53;3.03;;;15.00;75.60;;;;;;5011524;28;20041;-72
2022/07/04 01:47:38;;;;;;;6.63;3.50;;;14.90;75.60;;;;;;5001721;28;20128;-72
2022/07/04 01:50:06;;;;;;;8.00;2.75;;;14.90;75.60;;;;;;5005918;28;20077;-73
2022/07/04 01:52:33;;;;;;;7.45;3.03;;;14.80;75.60;;;;;;5006629;28;20548;-72
2022/07/04 01:54:59;;;;;;;8.18;2.80;;;14.70;75.90;;;;;;5011416;28;20422;-72
2022/07/04 01:57:24;;;;;;;8.82;3.55;;;14.70;76.10;;;;;;5005391;28;20077;-72
2022/07/04 02:02:35;;;;;;;11.85;3.22;;;14.70;76.20;;;;;;5008666;28;20100;-73
2022/07/04 02:05:00;;;;;;;8.73;2.85;;;14.70;76.30;;;;;;5001318;28;20051;-72
2022/07/04 02:07:26;;;;;;;7.90;2.88;;;14.70;76.30;;;;;;5005273;28;20049;-72
2022/07/04 02:09:52;;;;;;;7.95;3.20;;;14.60;76.50;;;;;;5009770;28;20034;-72
2022/07/04 02:15:02;;;;;;;9.95;3.47;;;14.60;76.80;;;;;;4997269;28;20108;-72
2022/07/04 02:17:28;;;;;;;10.60;3.58;;;14.60;76.90;;;;;;5005031;28;20038;-72
2022/07/04 02:19:54;;;;;;;10.52;2.97;;;14.60;77.00;;;;;;5003280;28;20092;-72
2022/07/04 02:22:20;;;;;;;8.88;3.88;;;14.60;77.30;;;;;;5009920;28;20042;-72
2022/07/04 02:24:45;;;;;;;8.65;3.00;;;14.50;77.40;;;;;;5009702;28;20041;-72
2022/07/04 02:27:11;;;;;;;8.55;3.20;;;14.50;77.40;;;;;;5006892;28;20470;-72
2022/07/04 02:29:37;;;;;;;10.07;3.72;;;14.50;77.50;;;;;;4995195;28;20038;-72
2022/07/04 02:32:03;;;;;;;8.77;3.60;;;14.50;77.60;;;;;;5001915;28;20045;-73
2022/07/04 02:34:29;;;;;;;10.25;3.15;;;14.50;77.70;;;;;;5011261;28;20026;-72
2022/07/04 02:36:55;;;;;;;10.90;3.33;;;14.40;77.60;;;;;;5011558;28;21881;-73
2022/07/04 02:39:20;;;;;;;9.68;3.58;;;14.40;77.70;;;;;;5007743;28;20048;-72
2022/07/04 02:41:46;;;;;;;7.82;3.35;;;14.40;77.90;;;;;;5009376;28;20038;-72
2022/07/04 02:44:12;;;;;;;11.38;3.45;;;14.40;78.00;;;;;;4991513;28;20034;-72
2022/07/04 02:46:37;;;;;;;9.32;3.28;;;14.30;77.80;;;;;;5002461;28;20053;-72
2022/07/04 02:49:04;;;;;;;9.38;3.55;;;14.20;77.90;;;;;;5007421;28;20145;-73
2022/07/04 02:51:30;;;;;;;9.10;3.53;;;14.20;78.10;;;;;;5001020;28;20410;-72
2022/07/04 02:53:56;;;;;;;9.77;4.03;;;14.10;78.30;;;;;;4999288;28;20034;-72
2022/07/04 02:56:22;;;;;;;9.18;4.40;;;14.10;78.50;;;;;;4997563;28;20038;-72
2022/07/04 02:58:47;;;;;;;10.25;4.40;;;14.10;78.80;;;;;;4990517;28;20047;-72
2022/07/04 03:01:14;;;;;;;11.63;4.63;;;14.00;78.90;;;;;;5001744;28;20406;-72
2022/07/04 03:03:40;;;;;;;8.45;4.10;;;14.00;79.20;;;;;;4998436;28;20041;-72
2022/07/04 03:06:09;;;;;;;10.63;5.05;;;14.00;79.10;;;;;;5007493;28;20042;-72
2022/07/04 03:08:36;;;;;;;10.60;5.00;;;13.90;79.50;;;;;;5004658;28;20367;-72
2022/07/04 03:11:01;;;;;;;10.32;4.40;;;14.00;79.50;;;;;;5000296;28;20031;-72
2022/07/04 03:13:27;;;;;;;12.38;5.20;;;14.00;79.90;;;;;;5010253;28;20041;-71
2022/07/04 03:15:53;;;;;;;11.30;5.60;;;14.00;79.80;;;;;;5007484;28;20033;-74
2022/07/04 03:18:19;;;;;;;11.70;5.53;;;14.00;79.80;;;;;;4994547;28;20065;-71
2022/07/04 03:20:44;;;;;;;15.27;6.03;;;14.00;80.00;;;;;;5004406;28;20030;-72
2022/07/04 03:23:10;;;;;;;10.73;5.78;;;14.00;79.80;;;;;;5006783;28;20065;-73
2022/07/04 03:25:36;;;;;;;10.93;5.55;;;14.00;79.80;;;;;;5004683;28;20389;-71
2022/07/04 03:28:02;;;;;;;10.68;5.35;;;14.00;80.00;;;;;;5009047;28;20061;-73
2022/07/04 03:30:28;;;;;;;13.57;6.40;;;13.90;80.20;;;;;;5007451;28;20088;-72
2022/07/04 03:32:54;;;;;;;13.13;6.10;;;13.90;80.40;;;;;;5005590;28;20464;-72
2022/07/04 03:35:20;;;;;;;12.05;7.35;;;14.00;80.50;;;;;;5005007;28;20038;-72
2022/07/04 03:37:46;;;;;;;11.48;6.50;;;14.00;80.60;;;;;;5002990;28;20560;-71
2022/07/04 03:40:12;;;;;;;13.32;7.90;;;13.90;80.70;;;;;;5001941;28;20034;-72
2022/07/04 03:42:38;;;;;;;11.68;6.53;;;14.00;80.60;;;;;;4995489;28;20077;-72
2022/07/04 03:45:07;;;;;;;14.32;6.80;;;14.00;80.70;;;;;;4998356;28;20042;-72
2022/07/04 03:47:33;;;;;;;14.25;6.45;;;14.00;80.60;;;;;;4996866;28;20042;-72
2022/07/04 03:49:58;;;;;;;22.55;6.93;;;14.10;80.90;;;;;;4990870;28;20093;-73
2022/07/04 03:52:24;;;;;;;12.43;5.88;;;14.10;80.80;;;;;;4999100;28;20371;-72
2022/07/04 03:54:50;;;;;;;13.65;5.30;;;14.10;80.70;;;;;;4993321;28;20037;-72
2022/07/04 03:57:15;;;;;;;9.95;5.22;;;14.10;80.90;;;;;;5006537;28;20535;-72
2022/07/04 03:59:41;;;;;;;12.23;5.22;;;14.10;81.00;;;;;;5005002;28;20031;-72
2022/07/04 04:02:07;;;;;;;11.70;4.82;;;14.10;81.10;;;;;;4995232;28;20449;-72
2022/07/04 04:07:17;;;;;;;9.52;5.13;;;14.10;81.30;;;;;;5004215;28;20118;-72
2022/07/04 04:09:42;;;;;;;14.90;5.15;;;14.10;81.00;;;;;;5003633;28;20113;-72
2022/07/04 04:12:08;;;;;;;11.23;5.38;;;14.10;80.90;;;;;;4997889;28;20053;-72
2022/07/04 04:14:34;;;;;;;12.27;5.22;;;14.10;81.40;;;;;;5003337;28;20122;-72
2022/07/04 04:16:59;;;;;;;11.00;5.03;;;14.10;81.40;;;;;;4990228;28;20454;-72
2022/07/04 04:19:25;;;;;;;12.38;6.18;;;14.20;81.40;;;;;;5008519;28;20118;-72
2022/07/04 04:21:51;;;;;;;11.93;5.05;;;14.20;81.10;;;;;;4994272;28;20073;-72
2022/07/04 04:24:16;;;;;;;11.82;5.00;;;14.20;81.30;;;;;;4989608;28;20037;-72
2022/07/04 04:26:42;;;;;;;11.45;5.18;;;14.30;81.30;;;;;;4998010;28;20046;-72
2022/07/04 04:29:08;;;;;;;11.27;5.18;;;14.50;81.30;;;;;;4997660;28;20030;-72
2022/07/04 04:31:33;;;;;;;13.65;5.50;;;14.50;81.20;;;;;;5004980;28;20053;-72
2022/07/04 04:33:59;;;;;;;9.68;4.93;;;14.60;80.90;;;;;;5013319;28;20065;-72
2022/07/04 04:36:25;;;;;;;10.15;4.82;;;14.70;80.60;;;;;;4996237;28;20077;-74
2022/07/04 04:38:51;;;;;;;13.85;4.95;;;14.70;80.50;;;;;;5012502;28;20034;-75
2022/07/04 04:41:16;;;;;;;13.23;4.63;;;14.70;80.40;;;;;;5001443;28;20407;-75
2022/07/04 04:43:42;;;;;;;10.57;4.88;;;14.80;80.20;;;;;;5007700;28;20111;-75
2022/07/04 04:46:08;;;;;;;12.57;4.70;;;14.80;80.10;;;;;;4996342;28;20046;-75
2022/07/04 04:48:34;;;;;;;15.20;5.05;;;14.90;79.80;;;;;;4996345;28;20129;-75
2022/07/04 04:51:00;;;;;;;9.60;3.90;;;15.00;79.70;;;;;;5008064;28;20121;-75
2022/07/04 04:53:26;;;;;;;9.15;4.10;;;15.10;79.30;;;;;;5002412;28;20041;-75
2022/07/04 04:55:52;;;;;;;12.60;5.00;;;15.20;78.90;;;;;;5007544;28;20487;-76
2022/07/04 04:58:19;;;;;;;12.63;4.43;;;15.30;78.60;;;;;;4992342;28;20526;-75
2022/07/04 05:00:45;;;;;;;9.73;4.38;;;15.50;78.40;;;;;;5001599;28;20108;-75
2022/07/04 05:03:11;;;;;;;9.40;3.75;;;15.50;78.10;;;;;;4999097;28;20514;-75
2022/07/04 05:05:37;;;;;;;10.77;4.75;;;15.60;77.80;;;;;;5003186;28;20034;-75
2022/07/04 05:08:03;;;;;;;10.30;4.20;;;15.80;77.40;;;;;;5002261;28;20133;-75
2022/07/04 05:10:29;;;;;;;11.23;4.65;;;15.80;76.70;;;;;;5006693;28;20026;-75
2022/07/04 05:12:55;;;;;;;9.45;4.13;;;16.10;77.20;;;;;;5005684;28;20482;-75
2022/07/04 05:15:21;;;;;;;11.05;3.90;;;16.30;76.70;;;;;;5011249;28;20481;-76
2022/07/04 05:17:47;;;;;;;10.55;3.97;;;16.60;75.60;;;;;;5011384;28;20112;-75
2022/07/04 05:20:12;;;;;;;15.10;4.25;;;16.80;74.10;;;;;;5009208;28;20478;-75
2022/07/04 05:22:38;;;;;;;10.32;4.28;;;17.00;73.10;;;;;;5009886;28;20053;-75
2022/07/04 05:25:04;;;;;;;8.38;3.78;;;17.10;73.80;;;;;;4997000;28;20421;-75
2022/07/04 05:27:30;;;;;;;11.05;4.13;;;17.40;73.20;;;;;;5005231;28;20050;-75
2022/07/04 05:29:57;;;;;;;10.65;4.35;;;17.40;72.40;;;;;;5011765;28;20034;-76
2022/07/04 05:32:23;;;;;;;13.00;5.40;;;17.30;72.80;;;;;;5009300;28;20224;-75
2022/07/04 05:34:49;;;;;;;12.93;4.80;;;17.10;73.90;;;;;;5002278;28;20087;-75
2022/07/04 05:37:15;;;;;;;15.57;5.70;;;17.00;74.60;;;;;;5011079;28;20129;-74
2022/07/04 05:39:41;;;;;;;11.88;5.75;;;16.90;74.60;;;;;;4994184;28;20088;-74
2022/07/04 05:42:06;;;;;;;11.82;5.55;;;16.80;74.80;;;;;;5002607;28;20061;-74
2022/07/04 05:44:32;;;;;;;13.25;5.78;;;16.70;75.60;;;;;;5011282;28;20034;-74
2022/07/04 05:46:58;;;;;;;12.93;5.95;;;16.70;76.00;;;;;;4994609;28;20061;-74
2022/07/04 05:49:23;;;;;;;16.27;5.40;;;16.70;76.20;;;;;;4998764;28;20410;-74
2022/07/04 05:51:49;;;;;;;14.02;5.97;;;16.80;75.60;;;;;;5008810;28;20060;-74
2022/07/04 05:54:15;;;;;;;17.15;7.05;;;16.90;75.60;;;;;;5002941;28;20121;-74
2022/07/04 05:56:42;;;;;;;12.50;5.97;;;16.90;75.60;;;;;;5005530;28;20088;-74
2022/07/04 05:59:09;;;;;;;13.27;6.32;;;17.00;75.40;;;;;;4999262;28;20381;-74
2022/07/04 06:01:35;;;;;;;17.27;7.05;;;17.00;75.40;;;;;;4998232;28;20030;-74
2022/07/04 06:04:00;;;;;;;14.75;6.47;;;17.10;75.30;;;;;;4998137;28;20069;-74
2022/07/04 06:06:26;;;;;;;17.98;7.65;;;17.10;75.40;;;;;;5001097;28;20066;-74
2022/07/04 06:08:51;;;;;;;21.00;8.32;;;17.10;75.10;;;;;;5011256;28;20397;-74
2022/07/04 06:11:18;;;;;;;18.48;8.32;;;17.30;75.20;;;;;;5010287;28;20032;-75
2022/07/04 06:13:43;;;;;;;17.40;8.20;;;17.40;74.50;;;;;;5002864;28;20471;-75
2022/07/04 06:16:09;;;;;;;18.30;9.02;;;17.40;74.80;;;;;;5000169;28;20046;-75
2022/07/04 06:18:35;;;;;;;21.13;8.15;;;17.40;75.30;;;;;;4990771;28;20034;-75
2022/07/04 06:21:01;;;;;;;22.00;10.50;;;17.50;74.70;;;;;;5002573;28;20421;-75
2022/07/04 06:23:26;;;;;;;25.65;11.80;;;17.60;74.70;;;;;;4996965;28;20038;-76
2022/07/04 06:25:52;;;;;;;23.00;12.88;;;17.80;74.60;;;;;;5002859;28;20034;-75
2022/07/04 06:28:18;;;;;;;26.50;10.88;;;17.90;74.60;;;;;;4991873;28;20437;-75
2022/07/04 06:30:44;;;;;;;27.15;12.23;;;18.00;74.80;;;;;;5007733;28;20046;-75
2022/07/04 06:33:09;;;;;;;21.70;10.60;;;18.00;74.10;;;;;;4992988;28;20034;-75
2022/07/04 06:38:21;;;;;;;27.42;11.95;;;18.10;74.10;;;;;;5003849;28;20390;-75
2022/07/04 06:40:50;;;;;;;26.02;11.95;;;18.10;74.70;;;;;;5009324;28;20451;-75
2022/07/04 06:43:16;;;;;;;24.65;12.30;;;18.30;74.20;;;;;;5004682;28;20071;-75
2022/07/04 06:45:42;;;;;;;26.23;12.85;;;18.60;74.00;;;;;;5003943;28;20485;-75
2022/07/04 06:48:08;;;;;;;26.13;11.95;;;18.80;72.60;;;;;;5007294;28;20128;-75
2022/07/04 06:50:34;;;;;;;29.95;13.68;;;18.90;72.10;;;;;;5010264;28;20462;-75
2022/07/04 06:53:04;;;;;;;26.42;13.82;;;19.10;72.60;;;;;;5009991;28;20033;-75
2022/07/04 06:55:30;;;;;;;23.60;12.82;;;19.10;71.80;;;;;;5005627;28;20045;-75
2022/07/04 06:57:55;;;;;;;21.95;11.27;;;19.10;72.00;;;;;;5000391;28;20038;-75
2022/07/04 07:00:21;;;;;;;28.50;13.13;;;19.40;71.20;;;;;;5010024;28;20041;-75
2022/07/04 07:02:47;;;;;;;26.52;14.02;;;19.40;71.30;;;;;;5009154;28;20037;-75
2022/07/04 07:05:13;;;;;;;30.52;15.48;;;19.60;71.00;;;;;;4992862;28;20030;-75
2022/07/04 07:07:38;;;;;;;23.52;14.10;;;19.60;71.60;;;;;;5004137;28;20049;-75
2022/07/04 07:10:06;;;;;;;26.48;14.90;;;19.70;71.60;;;;;;5007303;28;20474;-75
2022/07/04 07:12:33;;;;;;;29.05;16.30;;;19.70;71.50;;;;;;4999318;28;20111;-75
2022/07/04 07:14:59;;;;;;;25.83;13.68;;;19.80;71.10;;;;;;5007883;28;20053;-75
2022/07/04 07:17:24;;;;;;;26.20;13.48;;;19.90;71.30;;;;;;5008580;28;20038;-75
2022/07/04 07:19:50;;;;;;;24.65;13.02;;;20.10;70.40;;;;;;5010598;28;20394;-75
2022/07/04 07:22:16;;;;;;;22.70;12.27;;;20.10;69.50;;;;;;5006315;28;20092;-75
2022/07/04 07:24:42;;;;;;;26.75;13.27;;;20.10;70.10;;;;;;5004560;28;20061;-75
2022/07/04 07:27:08;;;;;;;28.45;13.27;;;20.10;69.50;;;;;;4991116;28;20073;-76
2022/07/04 07:29:35;;;;;;;26.60;12.73;;;20.10;70.40;;;;;;5010653;28;20512;-76
2022/07/04 07:32:01;;;;;;;23.48;12.70;;;20.10;70.10;;;;;;5000324;28;20030;-75
2022/07/04 07:34:27;;;;;;;22.35;11.57;;;20.30;69.70;;;;;;5009897;28;20041;-76
2022/07/04 07:36:53;;;;;;;22.17;12.60;;;20.50;69.30;;;;;;5011824;28;20084;-75
2022/07/04 07:39:19;;;;;;;23.08;10.98;;;20.60;69.00;;;;;;4996164;28;20045;-74
2022/07/04 07:41:45;;;;;;;22.95;11.13;;;20.70;68.30;;;;;;5004317;28;20042;-74
2022/07/04 07:44:11;;;;;;;21.80;10.77;;;20.80;68.00;;;;;;5008324;28;20458;-74
2022/07/04 07:46:37;;;;;;;23.33;11.25;;;20.90;68.10;;;;;;5004507;28;20063;-74
2022/07/04 07:49:03;;;;;;;22.35;11.38;;;21.10;68.00;;;;;;4999091;28;20475;-74
2022/07/04 07:51:29;;;;;;;20.55;11.13;;;21.10;67.80;;;;;;5009110;28;20030;-74
2022/07/04 07:53:55;;;;;;;22.63;10.85;;;21.20;66.60;;;;;;4993806;28;20034;-76
2022/07/04 07:56:22;;;;;;;20.80;11.45;;;21.30;66.40;;;;;;5003500;28;20057;-74
2022/07/04 07:58:48;;;;;;;20.63;10.55;;;21.40;66.90;;;;;;4991062;28;20387;-74
2022/07/04 08:01:13;;;;;;;19.30;10.10;;;21.60;66.00;;;;;;5004189;28;20030;-74
2022/07/04 08:06:23;;;;;;;16.10;8.68;;;21.80;65.40;;;;;;5001497;28;20095;-74
2022/07/04 08:08:49;;;;;;;18.20;10.32;;;21.90;65.60;;;;;;5012289;28;20038;-74
2022/07/04 08:11:14;;;;;;;17.42;9.18;;;22.00;64.20;;;;;;4994562;28;20065;-74
2022/07/04 08:13:40;;;;;;;16.70;8.93;;;22.00;64.90;;;;;;5005363;28;20042;-74
2022/07/04 08:16:07;;;;;;;17.90;8.25;;;22.20;64.40;;;;;;5009477;28;20046;-74
2022/07/04 08:18:33;;;;;;;18.38;8.75;;;22.20;64.10;;;;;;5013212;28;20038;-74
2022/07/04 08:20:59;;;;;;;13.55;6.75;;;22.30;63.40;;;;;;5007164;28;20509;-74
2022/07/04 08:23:25;;;;;;;15.60;7.70;;;22.40;63.70;;;;;;4993601;28;20101;-74
2022/07/04 08:25:51;;;;;;;16.20;7.90;;;22.60;62.20;;;;;;4994990;28;20026;-74
2022/07/04 08:28:17;;;;;;;16.58;7.55;;;22.80;61.00;;;;;;5001700;28;20041;-74
2022/07/04 08:30:43;;;;;;;16.60;7.63;;;23.00;60.80;;;;;;5001033;28;20088;-74
2022/07/04 08:33:08;;;;;;;13.80;6.03;;;23.00;61.00;;;;;;5006676;28;20045;-75
2022/07/04 08:35:34;;;;;;;16.40;6.40;;;23.10;61.20;;;;;;5002048;28;20035;-75
2022/07/04 08:38:00;;;;;;;16.50;6.15;;;23.50;59.20;;;;;;5007292;28;20092;-75
2022/07/04 08:40:27;;;;;;;15.85;6.60;;;23.70;58.70;;;;;;5012387;28;20100;-75
2022/07/04 08:42:53;;;;;;;9.80;3.58;;;24.00;57.10;;;;;;5030111;28;20475;-74
2022/07/04 08:45:27;;;;;;;11.55;5.47;;;23.90;55.40;;;;;;5000384;28;20030;-74
2022/07/04 08:48:01;;;;;;;13.57;5.63;;;23.50;57.00;;;;;;5008418;28;20402;-75
2022/07/04 08:50:31;;;;;;;10.90;5.60;;;23.50;57.20;;;;;;5008537;28;20072;-75
2022/07/04 08:53:01;;;;;;;11.30;5.28;;;23.40;57.60;;;;;;5011194;28;20573;-75
2022/07/04 08:58:25;;;;;;;11.13;4.35;;;23.60;56.80;;;;;;5005379;28;20496;-75
2022/07/04 09:01:02;;;;;;;12.68;5.10;;;23.60;56.10;;;;;;5012100;28;20087;-75
2022/07/04 09:03:29;;;;;;;12.85;4.78;;;23.80;56.70;;;;;;4992277;28;20548;-75
2022/07/04 09:05:56;;;;;;;10.25;4.30;;;23.80;56.20;;;;;;4994727;28;20125;-75
2022/07/04 09:08:22;;;;;;;13.05;3.60;;;24.10;55.50;;;;;;5005659;28;20042;-75
2022/07/04 09:10:49;;;;;;;9.52;3.92;;;24.20;53.40;;;;;;5006042;28;20037;-75
2022/07/04 09:13:15;;;;;;;9.13;3.50;;;24.50;54.60;;;;;;5009742;28;20037;-75
2022/07/04 09:15:42;;;;;;;7.75;2.90;;;24.60;52.40;;;;;;5010908;28;20052;-75
2022/07/04 09:18:19;;;;;;;8.13;2.88;;;24.60;52.80;;;;;;4995819;28;20042;-75
2022/07/04 09:20:45;;;;;;;10.18;2.75;;;25.00;51.90;;;;;;5012433;28;20037;-75
2022/07/04 09:23:21;;;;;;;10.13;3.38;;;25.30;51.20;;;;;;5002787;28;20088;-75
2022/07/04 09:25:48;;;;;;;8.63;3.15;;;25.50;50.80;;;;;;4992408;28;20038;-75
2022/07/04 09:28:27;;;;;;;9.93;3.70;;;25.20;50.70;;;;;;5009332;28;20572;-75
2022/07/04 09:30:53;;;;;;;9.70;3.72;;;24.70;53.10;;;;;;5010310;28;20026;-75
2022/07/04 09:33:19;;;;;;;8.85;3.75;;;24.70;52.40;;;;;;4999861;28;20040;-75
2022/07/04 09:35:45;;;;;;;11.07;3.47;;;24.50;53.40;;;;;;4998926;28;20038;-75
2022/07/04 09:38:14;;;;;;;9.85;3.17;;;24.30;54.20;;;;;;5007940;28;20093;-75
2022/07/04 09:43:25;;;;;;;9.60;3.75;;;24.30;55.10;;;;;;4999095;28;20100;-75
2022/07/04 09:45:57;;;;;;;10.10;3.58;;;24.90;53.10;;;;;;4999294;28;20035;-75
2022/07/04 09:48:23;;;;;;;9.52;3.10;;;25.20;52.10;;;;;;5008953;28;20029;-75
2022/07/04 09:50:49;;;;;;;13.45;3.88;;;25.30;50.60;;;;;;4999542;28;20147;-75
2022/07/04 09:53:15;;;;;;;8.35;3.42;;;25.60;50.70;;;;;;4998613;28;20504;-75
2022/07/04 09:55:41;;;;;;;9.43;3.42;;;25.80;50.20;;;;;;4996466;28;20096;-75
2022/07/04 09:58:15;;;;;;;10.30;3.67;;;26.10;48.60;;;;;;5010708;28;20142;-75
2022/07/04 10:00:45;;;;;;;10.27;3.20;;;26.00;49.60;;;;;;5004946;28;20030;-75
2022/07/04 10:03:25;;;;;;;9.30;3.65;;;25.50;49.50;;;;;;5003291;28;20034;-74
2022/07/04 10:06:12;;;;;;;8.50;3.50;;;25.20;51.10;;;;;;5006107;28;20479;-75
2022/07/04 10:08:39;;;;;;;5.75;2.50;;;25.60;51.20;;;;;;5007523;28;20401;-74
2022/07/04 10:11:06;;;;;;;7.47;2.85;;;26.10;49.00;;;;;;5010621;28;20030;-75
2022/07/04 10:13:32;;;;;;;10.88;3.05;;;26.00;47.50;;;;;;5010084;28;20429;-74
2022/07/04 10:15:58;;;;;;;8.77;3.38;;;25.80;49.30;;;;;;5000426;28;20561;-75
2022/07/04 10:18:25;;;;;;;8.43;3.10;;;25.90;49.10;;;;;;5003942;28;20062;-74
2022/07/04 10:20:53;;;;;;;8.23;3.00;;;25.70;49.20;;;;;;5006867;28;20030;-74
2022/07/04 10:23:21;;;;;;;9.20;3.00;;;25.40;49.90;;;;;;5003584;28;20573;-74
2022/07/04 10:25:51;;;;;;;9.60;3.30;;;25.30;49.80;;;;;;5010047;28;20033;-74
2022/07/04 10:28:17;;;;;;;10.82;3.97;;;25.20;51.50;;;;;;5003828;28;20050;-74
2022/07/04 10:30:47;;;;;;;10.18;3.30;;;24.90;52.30;;;;;;4997148;28;20034;-74
2022/07/04 10:33:13;;;;;;;9.10;3.28;;;24.80;51.30;;;;;;4992241;28;20430;-74
2022/07/04 10:36:04;;;;;;;11.60;3.45;;;24.60;52.60;;;;;;4998065;28;20030;-74
2022/07/04 10:38:31;;;;;;;9.10;3.30;;;24.70;52.10;;;;;;5002551;28;20046;-74
2022/07/04 10:41:04;;;;;;;9.32;3.28;;;25.10;51.30;;;;;;5002063;28;20038;-75
2022/07/04 10:43:30;;;;;;;9.63;3.63;;;25.10;52.20;;;;;;4990049;28;20174;-74
2022/07/04 10:46:02;;;;;;;11.25;3.90;;;24.90;53.20;;;;;;5000861;28;20063;-75
2022/07/04 10:48:28;;;;;;;9.13;3.45;;;24.80;52.90;;;;;;5001318;28;20041;-74
2022/07/04 10:51:03;;;;;;;9.73;3.03;;;24.80;53.30;;;;;;5001359;28;20026;-75
2022/07/04 10:53:30;;;;;;;9.98;3.78;;;25.60;51.50;;;;;;5005944;28;20041;-74
2022/07/04 10:56:14;;;;;;;13.30;3.85;;;25.90;50.80;;;;;;5002621;28;20544;-74
2022/07/04 10:58:42;;;;;;;8.88;3.03;;;25.90;50.90;;;;;;4990298;28;20062;-74
2022/07/04 11:01:15;;;;;;;10.43;3.08;;;25.70;49.30;;;;;;5000810;28;20038;-74
2022/07/04 11:03:52;;;;;;;7.97;2.83;;;26.00;49.90;;;;;;5007223;28;20490;-73
2022/07/04 11:06:33;;;;;;;8.52;3.30;;;26.10;51.00;;;;;;5003664;28;20099;-74
2022/07/04 11:09:17;;;;;;;8.35;2.75;;;25.90;49.90;;;;;;5007256;28;20115;-74
2022/07/04 11:12:00;;;;;;;8.38;3.17;;;25.70;50.60;;;;;;4999381;28;20030;-76
2022/07/04 11:14:45;;;;;;;10.73;3.60;;;25.90;50.10;;;;;;5009748;28;20026;-74
2022/07/04 11:17:20;;;;;;;9.70;3.40;;;26.00;49.40;;;;;;5013875;28;20080;-74
2022/07/04 11:19:47;;;;;;;8.63;3.53;;;26.10;49.40;;;;;;5008752;28;20129;-74
2022/07/04 11:22:22;;;;;;;10.30;3.33;;;26.50;48.00;;;;;;5006921;28;20029;-74
2022/07/04 11:24:48;;;;;;;6.55;2.92;;;26.50;46.30;;;;;;5007155;28;20045;-74
2022/07/04 11:27:15;;;;;;;7.00;2.70;;;26.60;46.10;;;;;;4988975;28;20563;-74
2022/07/04 11:29:51;;;;;;;8.35;2.67;;;26.80;46.70;;;;;;4999652;28;20394;-74
2022/07/04 11:32:17;;;;;;;11.55;3.40;;;26.80;46.60;;;;;;4998519;28;20042;-74
2022/07/04 11:34:43;;;;;;;6.28;2.60;;;26.60;44.90;;;;;;4996921;28;20041;-74
2022/07/04 11:37:09;;;;;;;9.27;2.88;;;26.50;46.40;;;;;;5007373;28;20037;-74
2022/07/04 11:39:34;;;;;;;8.52;2.70;;;26.50;46.80;;;;;;5007573;28;20041;-74
2022/07/04 11:45:02;;;;;;;;;;;27.20;43.80;;;;;;5009209;28;20042;-75
2022/07/04 11:47:38;;;;;;;9.95;2.40;;;27.50;43.30;;;;;;5004966;28;19956;-75
2022/07/04 11:50:10;;;;;;;5.80;2.33;;;27.70;42.90;;;;;;5001286;28;20096;-75
2022/07/04 11:52:42;;;;;;;7.28;2.30;;;28.00;43.70;;;;;;5011885;28;20038;-75
2022/07/04 11:55:14;;;;;;;6.30;2.30;;;28.30;41.00;;;;;;5004771;28;20041;-75
2022/07/04 11:57:41;;;;;;;8.27;2.25;;;28.70;40.50;;;;;;5001463;28;20038;-75
2022/07/04 12:00:09;;;;;;;6.25;2.15;;;28.50;41.10;;;;;;4999025;28;20363;-75
2022/07/04 12:02:35;;;;;;;7.03;2.28;;;28.60;40.50;;;;;;5011213;28;20108;-77
2022/07/04 12:05:03;;;;;;;9.18;2.90;;;28.70;40.80;;;;;;4996409;28;20050;-76
2022/07/04 12:07:34;;;;;;;8.45;2.47;;;28.60;40.50;;;;;;5005745;28;20486;-76
2022/07/04 12:10:15;;;;;;;7.90;2.20;;;28.60;41.00;;;;;;5006376;28;20038;-76
2022/07/04 12:12:55;;;;;;;7.78;2.10;;;28.70;39.70;;;;;;5011131;28;20084;-76
2022/07/04 12:15:22;;;;;;;7.30;2.35;;;28.80;39.70;;;;;;5008281;28;20045;-76
2022/07/04 12:17:55;;;;;;;4.90;1.60;;;28.90;40.10;;;;;;5002631;28;20512;-76
2022/07/04 12:20:22;;;;;;;6.57;2.13;;;28.30;39.80;;;;;;5011684;28;20045;-76
2022/07/04 12:22:57;;;;;;;5.15;1.80;;;28.20;40.10;;;;;;5003406;28;20513;-76
2022/07/04 12:25:27;;;;;;;5.43;2.00;;;28.20;40.00;;;;;;4992264;28;20035;-76
2022/07/04 12:27:55;;;;;;;6.97;2.05;;;27.30;40.50;;;;;;5006156;28;20555;-76
2022/07/04 12:30:21;;;;;;;7.07;1.83;;;26.90;42.40;;;;;;5004204;28;20458;-76
2022/07/04 12:32:50;;;;;;;6.40;1.83;;;26.90;43.90;;;;;;4996110;28;20129;-76
2022/07/04 12:35:47;;;;;;;7.88;2.38;;;27.00;43.90;;;;;;5009038;28;20196;-76
2022/07/04 12:38:34;;;;;;;6.20;2.15;;;27.40;42.80;;;;;;5010326;28;20034;-76
2022/07/04 12:41:00;;;;;;;7.82;2.25;;;27.70;41.70;;;;;;5002625;28;20038;-76
2022/07/04 12:43:48;;;;;;;6.30;1.92;;;27.70;42.10;;;;;;5009846;28;20124;-76
2022/07/04 12:46:25;;;;;;;5.68;1.83;;;28.20;40.60;;;;;;4999428;28;20514;-76
2022/07/04 12:48:52;;;;;;;5.43;1.77;;;28.60;39.00;;;;;;5006212;28;20034;-75
2022/07/04 12:51:33;;;;;;;6.70;2.50;;;28.80;38.10;;;;;;4995488;28;20089;-74
2022/07/04 12:54:06;;;;;;;6.43;1.83;;;28.90;37.60;;;;;;4998376;28;20397;-76
2022/07/04 12:56:38;;;;;;;6.75;2.00;;;28.40;39.30;;;;;;5000120;28;20044;-76
2022/07/04 12:59:06;;;;;;;6.55;2.17;;;28.00;40.10;;;;;;4993838;28;20058;-77
2022/07/04 13:01:32;;;;;;;5.18;1.88;;;27.30;41.10;;;;;;4997457;28;20454;-76
2022/07/04 13:03:58;;;;;;;5.35;2.22;;;26.80;41.60;;;;;;5008320;28;20075;-76